Time;durP1;ratioP1;P1;durP2;ratioP2;P2;SDS_P1;SDS_P2;PMS_P1;PMS_P2;Temp;Humidity;BMP_temperature;BMP_pressure;BME280_temperature;BME280_humidity;BME280_pressure;Samples;Min_cycle;Max_cycle;Signal;HPM_P1;HPM_P2
2023/07/15 00:01:11;;;;;;;7.55;2.22;;;20.70;99.90;;;;;;5075196;28;20232;-62
2023/07/15 00:03:40;;;;;;;3.97;2.47;;;20.60;99.90;;;;;;5075050;28;20707;-62
2023/07/15 00:06:09;;;;;;;3.72;2.20;;;20.60;99.90;;;;;;5074633;28;20690;-63
2023/07/15 00:08:37;;;;;;;8.48;2.30;;;20.60;99.90;;;;;;5074772;28;20288;-61
2023/07/15 00:11:05;;;;;;;3.50;2.30;;;20.50;99.90;;;;;;5074488;28;20217;-62
2023/07/15 00:13:33;;;;;;;4.50;2.65;;;20.50;99.90;;;;;;5074775;28;20783;-63
2023/07/15 00:16:02;;;;;;;2.08;1.90;;;20.40;99.90;;;;;;5074469;28;20197;-63
2023/07/15 00:18:30;;;;;;;4.45;2.45;;;20.40;99.90;;;;;;5075191;28;20239;-62
2023/07/15 00:20:59;;;;;;;3.83;2.55;;;20.40;99.90;;;;;;5075270;28;20262;-62
2023/07/15 00:23:27;;;;;;;5.22;2.15;;;20.30;99.90;;;;;;5073854;28;20232;-63
2023/07/15 00:25:55;;;;;;;5.22;2.35;;;20.30;99.90;;;;;;5073086;28;20745;-63
2023/07/15 00:28:24;;;;;;;6.20;2.20;;;20.30;99.90;;;;;;5073293;28;20205;-63
2023/07/15 00:30:53;;;;;;;3.75;2.20;;;20.20;99.90;;;;;;5073689;28;20238;-63
2023/07/15 00:33:21;;;;;;;4.28;2.40;;;20.20;99.90;;;;;;5073856;28;20208;-63
2023/07/15 00:35:49;;;;;;;3.83;2.45;;;20.10;99.90;;;;;;5073443;28;20209;-62
2023/07/15 00:38:19;;;;;;;2.85;2.50;;;20.10;99.90;;;;;;5073504;28;20200;-63
2023/07/15 00:40:48;;;;;;;6.30;2.25;;;20.10;99.90;;;;;;5073433;28;20251;-63
2023/07/15 00:43:54;;;;;;;3.35;2.00;;;20.10;99.90;;;;;;5073415;28;20209;-63
2023/07/15 00:46:36;;;;;;;6.22;2.95;;;20.00;99.90;;;;;;5060030;28;20250;-62
2023/07/15 00:49:05;;;;;;;5.15;2.60;;;19.90;99.90;;;;;;5073543;28;20201;-63
2023/07/15 00:51:34;;;;;;;6.97;2.63;;;19.80;99.90;;;;;;5073195;28;20232;-61
2023/07/15 00:54:02;;;;;;;2.90;2.50;;;19.70;99.90;;;;;;5073145;28;20232;-63
2023/07/15 00:56:31;;;;;;;4.80;2.42;;;19.70;99.90;;;;;;5072307;28;20236;-63
2023/07/15 00:58:58;;;;;;;5.43;2.63;;;19.60;99.90;;;;;;5072750;28;20651;-63
2023/07/15 01:01:26;;;;;;;4.63;2.90;;;19.60;99.90;;;;;;5073341;28;20220;-63
2023/07/15 01:03:56;;;;;;;6.82;2.42;;;19.50;99.90;;;;;;5072953;28;20240;-63
2023/07/15 01:06:24;;;;;;;3.92;2.38;;;19.50;99.90;;;;;;5072129;28;20201;-63
2023/07/15 01:08:53;;;;;;;5.15;2.30;;;19.50;99.90;;;;;;5072938;28;20250;-62
2023/07/15 01:11:21;;;;;;;2.55;2.35;;;19.50;99.90;;;;;;5072903;28;20282;-63
2023/07/15 01:13:49;;;;;;;4.00;2.15;;;19.40;99.90;;;;;;5072643;28;20238;-63
2023/07/15 01:16:17;;;;;;;8.70;2.65;;;19.40;99.90;;;;;;5072872;28;20267;-63
2023/07/15 01:18:45;;;;;;;5.60;2.10;;;19.40;99.90;;;;;;5072836;28;20212;-63
2023/07/15 01:21:14;;;;;;;3.58;2.40;;;19.40;99.90;;;;;;5072888;28;20228;-63
2023/07/15 01:23:44;;;;;;;3.80;2.40;;;19.40;99.90;;;;;;5072804;28;20205;-62
2023/07/15 01:26:12;;;;;;;2.78;2.40;;;19.30;99.90;;;;;;5071544;28;20246;-63
2023/07/15 01:28:40;;;;;;;2.95;2.70;;;19.30;99.90;;;;;;5072710;28;20676;-62
2023/07/15 01:31:08;;;;;;;5.43;2.40;;;19.30;99.90;;;;;;5072699;28;20228;-62
2023/07/15 01:33:36;;;;;;;3.72;2.75;;;19.30;99.90;;;;;;5072382;28;20207;-62
2023/07/15 01:36:04;;;;;;;3.15;2.83;;;19.30;99.90;;;;;;5071983;28;20229;-63
2023/07/15 01:38:33;;;;;;;4.32;2.33;;;19.20;99.90;;;;;;5071701;28;20211;-62
2023/07/15 01:41:02;;;;;;;5.10;2.90;;;19.20;99.90;;;;;;5072298;28;20751;-62
2023/07/15 01:43:30;;;;;;;3.70;2.70;;;19.10;99.90;;;;;;5072325;28;20223;-62
2023/07/15 01:45:58;;;;;;;4.72;2.78;;;19.10;99.90;;;;;;5063389;28;20305;-63
2023/07/15 01:48:26;;;;;;;3.92;2.33;;;19.10;99.90;;;;;;5067302;28;20834;-61
2023/07/15 01:50:54;;;;;;;7.15;2.40;;;19.00;99.90;;;;;;5082526;22;20255;-61
2023/07/15 01:53:22;;;;;;;4.57;2.60;;;19.00;99.90;;;;;;5091439;28;20278;-61
2023/07/15 01:55:50;;;;;;;3.67;2.60;;;19.00;99.90;;;;;;5103376;28;20283;-61
2023/07/15 01:58:20;;;;;;;6.22;2.72;;;19.00;99.90;;;;;;5092236;28;20257;-62
2023/07/15 02:00:49;;;;;;;4.45;2.78;;;19.00;99.90;;;;;;5092154;28;20246;-61
2023/07/15 02:03:17;;;;;;;8.23;3.10;;;18.90;99.90;;;;;;5091862;28;20254;-61
2023/07/15 02:05:45;;;;;;;6.63;2.88;;;18.90;99.90;;;;;;5091349;28;20285;-61
2023/07/15 02:08:13;;;;;;;3.63;2.53;;;18.80;99.90;;;;;;5092207;28;20204;-61
2023/07/15 02:10:41;;;;;;;5.20;2.88;;;18.80;99.90;;;;;;5091951;28;20211;-61
2023/07/15 02:13:11;;;;;;;4.25;2.50;;;18.80;99.90;;;;;;5091955;28;20266;-60
2023/07/15 02:15:40;;;;;;;6.07;2.22;;;18.80;99.90;;;;;;5091470;28;20200;-61
2023/07/15 02:18:08;;;;;;;4.50;2.47;;;18.80;99.90;;;;;;5091647;28;20232;-61
2023/07/15 02:20:37;;;;;;;4.55;2.42;;;18.70;99.90;;;;;;5091942;28;20265;-60
2023/07/15 02:23:06;;;;;;;5.18;2.38;;;18.70;99.90;;;;;;5092076;28;20204;-61
2023/07/15 02:25:34;;;;;;;3.28;2.55;;;18.70;99.90;;;;;;5091242;28;20226;-60
2023/07/15 02:28:03;;;;;;;4.32;2.70;;;18.70;99.90;;;;;;5091927;28;20200;-60
2023/07/15 02:30:31;;;;;;;2.85;2.65;;;18.60;99.90;;;;;;5091680;28;20277;-60
2023/07/15 02:33:01;;;;;;;4.93;2.75;;;18.60;99.90;;;;;;5091817;28;20228;-60
2023/07/15 02:35:29;;;;;;;3.13;2.20;;;18.50;99.90;;;;;;5091479;28;20203;-61
2023/07/15 02:37:58;;;;;;;7.55;2.85;;;18.50;99.90;;;;;;5091750;28;20257;-60
2023/07/15 02:40:26;;;;;;;7.18;3.08;;;18.50;99.90;;;;;;5091548;28;20215;-60
2023/07/15 02:42:54;;;;;;;5.40;2.85;;;18.40;99.90;;;;;;5091442;28;20273;-60
2023/07/15 02:45:22;;;;;;;5.38;2.42;;;18.40;99.90;;;;;;5090959;28;20265;-60
2023/07/15 02:47:51;;;;;;;7.53;2.63;;;18.40;99.90;;;;;;5091663;28;20318;-60
2023/07/15 02:50:21;;;;;;;2.75;2.55;;;18.30;99.90;;;;;;5091517;28;20203;-61
2023/07/15 02:52:49;;;;;;;9.00;2.88;;;18.40;99.90;;;;;;5091199;28;20238;-61
2023/07/15 02:55:16;;;;;;;4.03;2.60;;;18.40;99.90;;;;;;5091223;28;20204;-60
2023/07/15 02:57:44;;;;;;;4.57;2.40;;;18.30;99.90;;;;;;5091268;28;20204;-61
2023/07/15 03:00:15;;;;;;;7.78;2.60;;;18.30;99.90;;;;;;5091462;28;20261;-61
2023/07/15 03:02:47;;;;;;;3.17;2.70;;;18.30;99.90;;;;;;5091321;28;20219;-60
2023/07/15 03:05:16;;;;;;;4.63;2.90;;;18.30;99.90;;;;;;5089791;28;20277;-60
2023/07/15 03:07:46;;;;;;;6.93;2.60;;;18.20;99.90;;;;;;5091312;28;20218;-61
2023/07/15 03:10:14;;;;;;;3.25;2.63;;;18.20;99.90;;;;;;5090946;28;20200;-61
2023/07/15 03:12:43;;;;;;;6.50;2.80;;;18.20;99.90;;;;;;5090997;28;20682;-61
2023/07/15 03:15:11;;;;;;;3.72;2.65;;;18.20;99.90;;;;;;5089848;28;20663;-61
2023/07/15 03:17:39;;;;;;;6.28;2.50;;;18.20;99.90;;;;;;5091339;28;20648;-61
2023/07/15 03:20:14;;;;;;;4.07;2.40;;;18.20;99.90;;;;;;5090864;28;20208;-60
2023/07/15 03:22:42;;;;;;;6.38;2.83;;;18.20;99.90;;;;;;5090755;28;20645;-60
2023/07/15 03:25:12;;;;;;;5.35;2.05;;;18.20;99.90;;;;;;5090686;28;20204;-61
2023/07/15 03:27:42;;;;;;;3.00;2.50;;;18.20;99.90;;;;;;5091194;28;20200;-61
2023/07/15 03:30:10;;;;;;;5.25;2.53;;;18.20;99.90;;;;;;5091111;28;20231;-60
2023/07/15 03:32:38;;;;;;;5.75;3.03;;;18.20;99.90;;;;;;5091041;28;20227;-60
2023/07/15 03:35:08;;;;;;;5.40;2.75;;;18.10;99.90;;;;;;5090634;28;20287;-61
2023/07/15 03:37:37;;;;;;;6.65;2.88;;;18.10;99.90;;;;;;5090793;28;20591;-61
2023/07/15 03:40:07;;;;;;;6.30;2.85;;;18.10;99.90;;;;;;5090954;28;20200;-60
2023/07/15 03:42:36;;;;;;;4.53;3.08;;;18.10;99.90;;;;;;5091051;28;20231;-60
2023/07/15 03:45:05;;;;;;;4.20;3.00;;;18.10;99.90;;;;;;5090559;28;20258;-61
2023/07/15 03:47:33;;;;;;;4.18;2.38;;;18.00;99.90;;;;;;5090805;28;20649;-61
2023/07/15 03:50:02;;;;;;;8.38;2.55;;;18.00;99.90;;;;;;5090683;28;20200;-60
2023/07/15 03:52:30;;;;;;;7.40;2.75;;;18.00;99.90;;;;;;5090612;28;20360;-60
2023/07/15 03:54:59;;;;;;;4.85;2.97;;;18.00;99.90;;;;;;5090814;28;20204;-60
2023/07/15 03:57:27;;;;;;;4.82;3.45;;;17.90;99.90;;;;;;5090800;28;20667;-60
2023/07/15 03:59:56;;;;;;;3.20;2.90;;;17.90;99.90;;;;;;5090516;28;20192;-60
2023/07/15 04:02:24;;;;;;;7.07;3.20;;;18.00;99.90;;;;;;5093286;28;20220;-61
2023/07/15 04:04:52;;;;;;;7.82;2.80;;;18.00;99.90;;;;;;5094441;28;20200;-61
2023/07/15 04:07:20;;;;;;;6.25;2.55;;;18.00;99.90;;;;;;5094477;28;20255;-60
2023/07/15 04:09:48;;;;;;;5.78;2.80;;;18.00;99.90;;;;;;5094409;28;20283;-61
2023/07/15 04:12:16;;;;;;;3.55;3.03;;;18.00;99.90;;;;;;5094505;28;20277;-61
2023/07/15 04:14:43;;;;;;;3.97;2.92;;;18.10;99.90;;;;;;5093860;28;20204;-60
2023/07/15 04:17:13;;;;;;;5.25;2.67;;;18.10;99.90;;;;;;5093218;28;20204;-61
2023/07/15 04:19:41;;;;;;;3.85;2.80;;;18.10;99.90;;;;;;5094245;28;20224;-61
2023/07/15 04:22:08;;;;;;;6.18;2.70;;;18.10;99.90;;;;;;5094323;28;20662;-60
2023/07/15 04:24:36;;;;;;;3.90;2.90;;;18.10;99.90;;;;;;5093732;28;20204;-61
2023/07/15 04:27:05;;;;;;;4.53;2.90;;;18.10;99.90;;;;;;5094121;28;20274;-60
2023/07/15 04:29:33;;;;;;;5.00;2.83;;;18.10;99.90;;;;;;5093722;28;20200;-60
2023/07/15 04:32:01;;;;;;;4.07;2.90;;;18.20;99.90;;;;;;5094079;28;20311;-60
2023/07/15 04:34:30;;;;;;;4.38;2.70;;;18.20;99.90;;;;;;5093830;28;20291;-60
2023/07/15 04:36:58;;;;;;;6.53;2.67;;;18.20;99.90;;;;;;5092913;28;20234;-61
2023/07/15 04:39:27;;;;;;;7.68;3.15;;;18.30;99.90;;;;;;5093834;28;20207;-60
2023/07/15 04:41:55;;;;;;;6.53;2.83;;;18.30;99.90;;;;;;5093537;28;20273;-60
2023/07/15 04:44:23;;;;;;;4.80;3.15;;;18.30;99.90;;;;;;5093758;28;20203;-61
2023/07/15 04:46:50;;;;;;;6.85;2.67;;;18.30;99.90;;;;;;5093523;28;20269;-60
2023/07/15 04:49:18;;;;;;;6.47;2.83;;;18.30;99.90;;;;;;5093726;28;20204;-60
2023/07/15 04:51:48;;;;;;;8.50;2.85;;;18.30;99.90;;;;;;5093588;28;20235;-60
2023/07/15 04:54:15;;;;;;;3.55;3.20;;;18.40;99.90;;;;;;5093644;28;20228;-61
2023/07/15 04:56:44;;;;;;;5.75;2.92;;;18.40;99.90;;;;;;5093274;28;20197;-61
2023/07/15 04:59:12;;;;;;;3.25;2.97;;;18.40;99.90;;;;;;5091745;28;20227;-60
2023/07/15 05:01:40;;;;;;;6.43;3.10;;;18.50;99.90;;;;;;5092073;28;20277;-61
2023/07/15 05:04:08;;;;;;;3.35;3.05;;;18.50;99.90;;;;;;5091393;28;20215;-60
2023/07/15 05:06:36;;;;;;;7.47;3.17;;;18.50;99.90;;;;;;5091518;28;20643;-60
2023/07/15 05:09:07;;;;;;;6.93;3.25;;;18.50;99.90;;;;;;5091778;28;20204;-60
2023/07/15 05:11:34;;;;;;;9.95;2.63;;;18.50;99.90;;;;;;5093302;28;20215;-56
2023/07/15 05:14:04;;;;;;;6.60;2.50;;;18.50;99.90;;;;;;5091987;28;20643;-56
2023/07/15 05:16:32;;;;;;;3.70;3.22;;;18.60;99.90;;;;;;5093013;28;20207;-55
2023/07/15 05:18:59;;;;;;;3.17;2.47;;;18.70;99.90;;;;;;5093308;28;20200;-55
2023/07/15 05:21:27;;;;;;;3.45;2.53;;;18.80;99.90;;;;;;5092811;28;20266;-57
2023/07/15 05:23:55;;;;;;;3.40;2.70;;;18.90;99.90;;;;;;5092419;28;20212;-57
2023/07/15 05:26:25;;;;;;;4.93;2.90;;;19.00;99.90;;;;;;5092289;28;20216;-57
2023/07/15 05:28:53;;;;;;;3.47;2.83;;;19.10;99.90;;;;;;5093128;28;20201;-56
2023/07/15 05:31:21;;;;;;;8.13;2.80;;;19.20;99.90;;;;;;5092870;28;20311;-57
2023/07/15 05:33:49;;;;;;;5.10;3.13;;;19.20;99.90;;;;;;5093122;28;20683;-55
2023/07/15 05:36:16;;;;;;;3.53;2.83;;;19.30;99.90;;;;;;5092696;28;20291;-57
2023/07/15 05:38:44;;;;;;;3.20;2.90;;;19.40;99.90;;;;;;5093016;28;20239;-56
2023/07/15 05:41:12;;;;;;;4.70;3.38;;;19.60;99.90;;;;;;5092966;28;20227;-56
2023/07/15 05:43:42;;;;;;;4.55;3.22;;;19.60;99.90;;;;;;5092889;28;20208;-56
2023/07/15 05:46:10;;;;;;;6.30;3.42;;;19.80;99.90;;;;;;5092497;28;20257;-54
2023/07/15 05:48:38;;;;;;;6.05;3.17;;;19.90;99.90;;;;;;5092759;28;20204;-55
2023/07/15 05:51:06;;;;;;;5.85;2.80;;;20.10;99.90;;;;;;5092754;28;20263;-54
2023/07/15 05:53:34;;;;;;;5.05;3.55;;;20.30;99.90;;;;;;5092817;28;20553;-55
2023/07/15 05:56:02;;;;;;;5.97;2.88;;;20.40;99.90;;;;;;5092302;28;20254;-55
2023/07/15 05:58:30;;;;;;;5.78;3.50;;;20.60;99.90;;;;;;5092562;28;20246;-56
2023/07/15 06:00:59;;;;;;;3.30;3.03;;;20.70;99.90;;;;;;5092181;28;20924;-55
2023/07/15 06:03:27;;;;;;;8.63;3.50;;;20.80;99.90;;;;;;5090479;28;20200;-54
2023/07/15 06:06:01;;;;;;;6.43;3.03;;;20.80;99.90;;;;;;5091521;28;20203;-54
2023/07/15 06:08:29;;;;;;;4.80;3.28;;;20.80;99.90;;;;;;5090921;28;20292;-54
2023/07/15 06:10:57;;;;;;;4.72;3.17;;;20.80;99.90;;;;;;5091752;28;20224;-54
2023/07/15 06:13:25;;;;;;;4.78;2.92;;;20.80;99.90;;;;;;5091890;28;20249;-55
2023/07/15 06:15:58;;;;;;;3.78;2.70;;;20.80;99.90;;;;;;5091233;28;20207;-55
2023/07/15 06:18:26;;;;;;;6.38;3.35;;;20.90;99.90;;;;;;5089206;28;20234;-55
2023/07/15 06:20:54;;;;;;;8.68;3.60;;;21.00;99.90;;;;;;5091221;28;20827;-54
2023/07/15 06:23:23;;;;;;;6.25;4.00;;;21.10;99.90;;;;;;5091398;28;20231;-54
2023/07/15 06:25:51;;;;;;;7.30;3.40;;;21.30;99.90;;;;;;5091057;28;20197;-55
2023/07/15 06:28:19;;;;;;;6.55;3.85;;;21.40;99.90;;;;;;5091187;28;20292;-55
2023/07/15 06:30:48;;;;;;;6.35;3.55;;;21.60;99.90;;;;;;5091510;28;20204;-55
2023/07/15 06:33:18;;;;;;;5.30;3.47;;;21.80;99.90;;;;;;5091875;28;20224;-54
2023/07/15 06:35:45;;;;;;;9.05;3.92;;;21.90;99.90;;;;;;5091123;28;20275;-55
2023/07/15 06:38:13;;;;;;;6.78;3.47;;;22.10;99.90;;;;;;5091212;28;20687;-54
2023/07/15 06:40:41;;;;;;;8.45;3.00;;;22.20;99.90;;;;;;5091001;28;20228;-56
2023/07/15 06:43:09;;;;;;;4.63;3.00;;;22.30;99.90;;;;;;5092030;28;20628;-55
2023/07/15 06:45:37;;;;;;;3.17;2.92;;;22.30;99.90;;;;;;5090687;28;20196;-56
2023/07/15 06:48:05;;;;;;;4.70;3.33;;;22.40;99.90;;;;;;5091063;28;20817;-57
2023/07/15 06:50:36;;;;;;;9.35;3.47;;;22.40;99.90;;;;;;5090648;28;20255;-56
2023/07/15 06:53:04;;;;;;;5.50;2.88;;;22.50;99.90;;;;;;5090362;28;20691;-55
2023/07/15 06:55:32;;;;;;;3.38;3.08;;;22.60;99.90;;;;;;5090685;28;20265;-54
2023/07/15 06:58:01;;;;;;;3.58;3.08;;;22.70;99.90;;;;;;5091363;28;20237;-55
2023/07/15 07:00:29;;;;;;;3.85;3.40;;;22.80;99.90;;;;;;5091169;28;20269;-55
2023/07/15 07:02:58;;;;;;;6.38;2.95;;;22.90;99.90;;;;;;5091244;28;20314;-54
2023/07/15 07:05:27;;;;;;;7.35;3.10;;;23.00;99.90;;;;;;5090871;28;20200;-55
2023/07/15 07:07:56;;;;;;;5.32;3.05;;;23.10;99.90;;;;;;5090718;28;20269;-54
2023/07/15 07:10:24;;;;;;;4.72;3.03;;;23.10;99.90;;;;;;5091571;28;20257;-56
2023/07/15 07:12:52;;;;;;;6.35;3.05;;;23.20;99.90;;;;;;5091354;28;20270;-56
2023/07/15 07:15:20;;;;;;;6.95;2.75;;;23.30;99.90;;;;;;5091210;28;20200;-57
2023/07/15 07:17:48;;;;;;;4.55;2.92;;;23.40;99.90;;;;;;5091128;28;20261;-54
2023/07/15 07:20:16;;;;;;;3.03;2.72;;;23.40;99.90;;;;;;5090481;28;20523;-54
2023/07/15 07:22:44;;;;;;;4.93;2.97;;;23.50;99.90;;;;;;5089630;28;20251;-54
2023/07/15 07:25:14;;;;;;;3.97;2.50;;;23.50;99.90;;;;;;5090562;28;20291;-55
2023/07/15 07:27:42;;;;;;;4.53;2.72;;;23.70;99.90;;;;;;5090230;28;20223;-54
2023/07/15 07:30:10;;;;;;;3.53;2.85;;;23.80;99.90;;;;;;5090494;28;20196;-54
2023/07/15 07:32:38;;;;;;;3.28;2.78;;;24.00;99.90;;;;;;5090920;28;20259;-55
2023/07/15 07:35:07;;;;;;;6.32;2.90;;;24.10;99.90;;;;;;5089725;28;20204;-54
2023/07/15 07:37:35;;;;;;;6.78;2.90;;;24.20;99.90;;;;;;5093335;28;20192;-55
2023/07/15 07:40:04;;;;;;;3.42;2.65;;;24.20;99.90;;;;;;5095266;28;20208;-56
2023/07/15 07:42:33;;;;;;;5.50;2.60;;;24.20;99.90;;;;;;5095079;28;20220;-55
2023/07/15 07:45:01;;;;;;;5.70;2.35;;;24.20;99.90;;;;;;5094717;28;20238;-56
2023/07/15 07:47:29;;;;;;;4.80;2.50;;;24.20;99.90;;;;;;5094645;28;20192;-55
2023/07/15 07:49:57;;;;;;;4.47;2.70;;;24.20;99.90;;;;;;5093220;28;20265;-56
2023/07/15 07:52:25;;;;;;;7.60;2.63;;;24.20;99.90;;;;;;5094327;28;20228;-58
2023/07/15 07:54:53;;;;;;;7.22;2.88;;;24.30;99.90;;;;;;5111241;22;20224;-67
2023/07/15 07:57:21;;;;;;;2.88;2.67;;;24.30;99.90;;;;;;5069679;28;20567;-67
2023/07/15 07:59:50;;;;;;;5.03;2.80;;;24.30;99.90;;;;;;5067985;28;20271;-67
2023/07/15 08:02:18;;;;;;;4.35;2.55;;;24.40;99.90;;;;;;5057065;28;20223;-67
2023/07/15 08:04:48;;;;;;;4.05;2.95;;;24.50;99.90;;;;;;5059776;28;20256;-66
2023/07/15 08:07:16;;;;;;;5.35;2.53;;;24.50;99.90;;;;;;5064145;28;20201;-67
2023/07/15 08:09:44;;;;;;;6.32;2.88;;;24.70;99.90;;;;;;5054090;28;20291;-67
2023/07/15 08:12:12;;;;;;;5.03;2.60;;;24.80;99.90;;;;;;5065152;28;20267;-67
2023/07/15 08:14:39;;;;;;;3.00;2.72;;;25.00;99.90;;;;;;5058231;28;20241;-71
2023/07/15 08:17:09;;;;;;;5.85;2.75;;;25.10;99.90;;;;;;5051296;28;20673;-70
2023/07/15 08:19:37;;;;;;;4.85;2.85;;;25.10;99.90;;;;;;5064754;28;20297;-70
2023/07/15 08:22:05;;;;;;;5.95;3.33;;;25.20;99.90;;;;;;5051698;28;20219;-71
2023/07/15 08:24:33;;;;;;;6.40;2.55;;;25.30;99.90;;;;;;5038560;28;20206;-71
2023/07/15 08:27:02;;;;;;;4.63;2.50;;;25.50;99.90;;;;;;5045808;28;20239;-71
2023/07/15 08:29:30;;;;;;;2.58;2.38;;;25.80;99.90;;;;;;5062893;28;20800;-71
2023/07/15 08:31:58;;;;;;;4.15;2.80;;;25.80;99.90;;;;;;5038194;28;20240;-71
2023/07/15 08:34:27;;;;;;;6.35;2.95;;;26.00;99.90;;;;;;5063523;28;20299;-71
2023/07/15 08:36:55;;;;;;;8.85;2.20;;;26.30;99.90;;;;;;5061999;28;20209;-72
2023/07/15 08:39:23;;;;;;;7.60;2.70;;;26.60;99.90;;;;;;5055297;28;20803;-72
2023/07/15 08:41:51;;;;;;;5.22;2.67;;;26.80;99.90;;;;;;5067440;28;20625;-71
2023/07/15 08:44:19;;;;;;;5.45;2.83;;;26.90;99.90;;;;;;5057461;28;20200;-72
2023/07/15 08:46:47;;;;;;;4.90;2.40;;;27.00;99.90;;;;;;5059720;28;20284;-71
2023/07/15 08:49:15;;;;;;;4.35;2.22;;;27.10;99.90;;;;;;5065493;28;20228;-72
2023/07/15 08:51:47;;;;;;;2.90;2.20;;;27.20;99.90;;;;;;5052382;28;20591;-72
2023/07/15 08:54:15;;;;;;;2.85;2.63;;;27.20;99.90;;;;;;5056314;28;20229;-72
2023/07/15 08:56:43;;;;;;;4.35;2.47;;;27.30;99.90;;;;;;5060389;28;20259;-72
2023/07/15 08:59:15;;;;;;;8.88;2.75;;;27.40;99.90;;;;;;5064360;28;20275;-72
2023/07/15 09:01:43;;;;;;;4.47;2.72;;;27.40;99.90;;;;;;5053731;28;20255;-72
2023/07/15 09:04:12;;;;;;;3.10;2.28;;;27.40;99.90;;;;;;5064831;28;20205;-72
2023/07/15 09:06:40;;;;;;;5.90;2.25;;;27.50;99.90;;;;;;5058450;28;20233;-72
2023/07/15 09:09:09;;;;;;;2.30;2.10;;;27.60;99.90;;;;;;5056826;28;20950;-72
2023/07/15 09:11:41;;;;;;;3.47;2.17;;;27.70;99.90;;;;;;5066981;28;20320;-72
2023/07/15 09:14:17;;;;;;;6.30;2.78;;;27.70;99.90;;;;;;5055226;28;20242;-72
2023/07/15 09:16:45;;;;;;;2.53;2.30;;;27.60;99.90;;;;;;5059694;28;20232;-72
2023/07/15 09:19:13;;;;;;;4.78;2.65;;;27.50;99.90;;;;;;5063645;28;20260;-72
2023/07/15 09:21:51;;;;;;;2.47;2.30;;;27.40;99.90;;;;;;5052726;28;20280;-72
2023/07/15 09:24:20;;;;;;;4.32;2.33;;;27.20;99.90;;;;;;5063619;28;20557;-72
2023/07/15 09:26:48;;;;;;;2.70;2.50;;;27.10;99.90;;;;;;5058854;28;20691;-72
2023/07/15 09:29:16;;;;;;;7.32;2.33;;;27.00;99.90;;;;;;5055022;28;20233;-72
2023/07/15 09:31:44;;;;;;;4.50;2.60;;;26.90;99.90;;;;;;5065916;28;20275;-72
2023/07/15 09:34:12;;;;;;;6.30;2.78;;;26.90;99.90;;;;;;5055365;28;20235;-72
2023/07/15 09:36:39;;;;;;;4.45;2.50;;;26.90;99.90;;;;;;5059763;28;20240;-72
2023/07/15 09:39:12;;;;;;;5.30;2.90;;;26.80;99.90;;;;;;5063114;28;20201;-72
2023/07/15 09:41:41;;;;;;;5.22;3.00;;;26.80;99.90;;;;;;5053229;28;20205;-71
2023/07/15 09:44:09;;;;;;;2.45;2.25;;;26.80;99.90;;;;;;5054840;28;20196;-72
2023/07/15 09:46:37;;;;;;;7.63;2.70;;;26.70;99.90;;;;;;5059609;28;20200;-72
2023/07/15 09:49:05;;;;;;;4.40;2.97;;;26.60;99.90;;;;;;5061325;28;20768;-72
2023/07/15 09:51:33;;;;;;;5.10;2.58;;;26.50;99.90;;;;;;5052408;28;20194;-72
2023/07/15 09:54:01;;;;;;;7.28;2.78;;;26.40;99.90;;;;;;5052991;28;20197;-72
2023/07/15 09:56:31;;;;;;;8.98;2.78;;;26.40;99.90;;;;;;5060436;28;20244;-72
2023/07/15 09:59:03;;;;;;;5.07;2.50;;;26.30;99.90;;;;;;5061132;28;20201;-72
2023/07/15 10:01:33;;;;;;;3.17;2.75;;;26.20;99.90;;;;;;5053148;28;20912;-72
2023/07/15 10:04:06;;;;;;;5.18;2.30;;;26.20;99.90;;;;;;5037406;28;20205;-72
2023/07/15 10:06:34;;;;;;;4.95;3.13;;;26.10;99.90;;;;;;5060098;28;20690;-72
2023/07/15 10:09:02;;;;;;;3.72;2.55;;;26.10;99.90;;;;;;5061080;28;20307;-71
2023/07/15 10:11:31;;;;;;;3.67;2.63;;;26.00;99.90;;;;;;5053255;28;20255;-71
2023/07/15 10:14:00;;;;;;;8.50;3.00;;;26.00;99.90;;;;;;5036146;28;20754;-71
2023/07/15 10:16:28;;;;;;;12.40;2.97;;;25.90;99.90;;;;;;5060390;28;20631;-72
2023/07/15 10:18:56;;;;;;;6.30;3.00;;;25.80;99.90;;;;;;5060731;28;20228;-71
2023/07/15 10:21:24;;;;;;;6.70;3.20;;;25.70;99.90;;;;;;5054104;28;20201;-72
2023/07/15 10:23:54;;;;;;;5.95;2.92;;;25.70;99.90;;;;;;5065628;28;20297;-71
2023/07/15 10:26:22;;;;;;;12.00;2.83;;;25.60;99.90;;;;;;5054712;28;20303;-72
2023/07/15 10:28:52;;;;;;;4.20;2.53;;;25.60;99.90;;;;;;5057823;28;20255;-72
2023/07/15 10:31:24;;;;;;;7.57;3.30;;;25.80;99.90;;;;;;5052016;28;20744;-71
2023/07/15 10:33:54;;;;;;;5.50;2.90;;;25.80;99.90;;;;;;5050874;28;20211;-71
2023/07/15 10:36:35;;;;;;;7.45;3.15;;;25.90;99.90;;;;;;5047628;28;20243;-71
2023/07/15 10:39:13;;;;;;;4.38;3.10;;;25.90;99.90;;;;;;5048538;28;20303;-71
2023/07/15 10:41:42;;;;;;;5.70;2.78;;;26.00;99.90;;;;;;5051587;28;20709;-71
2023/07/15 10:44:16;;;;;;;6.38;3.00;;;25.90;99.90;;;;;;5047503;28;20193;-71
2023/07/15 10:46:47;;;;;;;6.30;3.08;;;25.90;99.90;;;;;;5057515;28;20605;-71
2023/07/15 10:49:15;;;;;;;6.15;3.25;;;26.00;99.90;;;;;;5054814;28;20237;-72
2023/07/15 10:51:43;;;;;;;7.10;3.33;;;26.00;99.90;;;;;;5051668;28;20236;-72
2023/07/15 10:54:10;;;;;;;4.05;2.80;;;26.00;99.90;;;;;;5053606;28;20233;-72
2023/07/15 10:56:39;;;;;;;10.02;3.22;;;26.10;99.90;;;;;;5058739;28;20266;-72
2023/07/15 10:59:06;;;;;;;8.15;3.22;;;26.10;99.90;;;;;;5061319;28;20288;-72
2023/07/15 11:01:34;;;;;;;6.63;3.70;;;26.10;99.90;;;;;;5050849;28;20691;-71
2023/07/15 11:04:06;;;;;;;5.57;3.47;;;26.00;99.90;;;;;;5064357;28;20693;-71
2023/07/15 11:06:34;;;;;;;6.18;3.85;;;25.90;99.90;;;;;;5056252;28;20196;-71
2023/07/15 11:09:18;;;;;;;16.58;3.60;;;25.80;99.90;;;;;;5055981;28;20292;-71
2023/07/15 11:11:46;;;;;;;9.38;3.83;;;25.60;99.90;;;;;;5067388;28;20232;-71
2023/07/15 11:14:21;;;;;;;8.43;3.70;;;25.60;99.90;;;;;;5058056;28;20188;-72
2023/07/15 11:16:51;;;;;;;7.82;4.10;;;25.50;99.90;;;;;;5061191;28;20275;-72
2023/07/15 11:19:20;;;;;;;8.55;3.92;;;25.50;99.90;;;;;;5067279;28;20234;-71
2023/07/15 11:21:48;;;;;;;8.73;3.95;;;25.40;99.90;;;;;;5056322;28;20214;-72
2023/07/15 11:24:16;;;;;;;5.75;4.30;;;25.30;99.90;;;;;;5066590;28;20263;-71
2023/07/15 11:26:44;;;;;;;7.85;3.95;;;25.20;99.90;;;;;;5061498;28;20291;-72
2023/07/15 11:29:16;;;;;;;9.55;3.97;;;25.20;99.90;;;;;;5058555;28;20232;-71
2023/07/15 11:31:44;;;;;;;10.13;4.50;;;25.20;99.90;;;;;;5068797;28;20544;-71
2023/07/15 11:34:12;;;;;;;7.38;3.88;;;25.20;99.90;;;;;;5057532;28;20254;-72
2023/07/15 11:36:42;;;;;;;8.38;4.13;;;25.10;99.90;;;;;;5061575;28;20245;-72
2023/07/15 11:39:10;;;;;;;6.72;3.63;;;25.10;99.90;;;;;;5065556;28;20246;-72
2023/07/15 11:41:38;;;;;;;6.82;4.35;;;25.00;99.90;;;;;;5055405;28;20216;-71
2023/07/15 11:44:08;;;;;;;5.70;4.15;;;25.00;99.90;;;;;;5067418;28;20572;-72
2023/07/15 11:46:36;;;;;;;6.20;4.00;;;25.00;99.90;;;;;;5060261;28;20201;-71
2023/07/15 11:49:05;;;;;;;5.82;4.15;;;24.90;99.90;;;;;;5059658;28;20236;-71
2023/07/15 11:51:34;;;;;;;5.07;3.83;;;25.00;99.90;;;;;;5067646;28;20695;-71
2023/07/15 11:54:07;;;;;;;8.10;4.05;;;25.00;99.90;;;;;;5067829;28;20247;-72
2023/07/15 11:56:36;;;;;;;6.53;4.50;;;25.10;99.90;;;;;;5059258;28;20685;-72
2023/07/15 11:59:06;;;;;;;6.28;4.38;;;25.10;99.90;;;;;;5059416;28;20216;-72
2023/07/15 12:01:34;;;;;;;8.70;4.57;;;25.20;99.90;;;;;;5068604;28;20254;-71
2023/07/15 12:04:02;;;;;;;5.15;4.00;;;25.20;99.90;;;;;;5055901;28;20240;-72
2023/07/15 12:06:30;;;;;;;12.52;4.25;;;25.30;99.90;;;;;;5063113;28;20204;-73
2023/07/15 12:09:02;;;;;;;6.22;4.45;;;25.30;99.90;;;;;;5063369;28;20715;-72
2023/07/15 12:11:32;;;;;;;7.88;3.60;;;25.30;99.90;;;;;;5055461;28;20259;-71
2023/07/15 12:14:00;;;;;;;7.45;3.38;;;25.30;99.90;;;;;;5038929;28;20193;-72
2023/07/15 12:16:29;;;;;;;6.50;3.58;;;25.30;99.90;;;;;;5063019;28;20476;-72
2023/07/15 12:18:57;;;;;;;5.80;3.92;;;25.30;99.90;;;;;;5063472;28;20196;-72
2023/07/15 12:21:25;;;;;;;8.30;3.67;;;25.30;99.90;;;;;;5055914;28;20201;-73
2023/07/15 12:23:53;;;;;;;4.57;3.25;;;25.40;99.90;;;;;;5067713;28;20209;-72
2023/07/15 12:26:20;;;;;;;4.68;3.47;;;25.60;99.90;;;;;;5057130;28;20205;-72
2023/07/15 12:28:50;;;;;;;6.78;4.00;;;25.80;99.90;;;;;;5061017;28;20228;-72
2023/07/15 12:31:18;;;;;;;9.82;3.25;;;26.00;99.90;;;;;;5065631;28;20224;-71
2023/07/15 12:33:46;;;;;;;8.57;3.80;;;26.10;99.90;;;;;;5055086;28;20251;-72
2023/07/15 12:36:14;;;;;;;7.82;3.38;;;26.20;99.90;;;;;;5064484;28;20232;-72
2023/07/15 12:38:43;;;;;;;5.22;3.08;;;26.20;99.90;;;;;;5060760;28;20204;-71
2023/07/15 12:41:11;;;;;;;6.20;3.72;;;26.20;99.90;;;;;;5056970;28;20828;-72
2023/07/15 12:43:40;;;;;;;7.15;3.78;;;26.10;99.90;;;;;;5067676;28;20216;-71
2023/07/15 12:46:09;;;;;;;5.60;3.60;;;26.10;99.90;;;;;;5054946;28;20224;-72
2023/07/15 12:48:37;;;;;;;6.22;3.47;;;26.10;99.90;;;;;;5062410;28;20231;-71
2023/07/15 12:51:05;;;;;;;7.47;3.80;;;26.20;99.90;;;;;;5063426;28;20282;-71
2023/07/15 12:53:33;;;;;;;4.88;3.05;;;26.10;99.90;;;;;;5070123;28;20641;-71